Time;durP1;ratioP1;P1;durP2;ratioP2;P2;SDS_P1;SDS_P2;PMS_P1;PMS_P2;Temp;Humidity;BMP_temperature;BMP_pressure;BME280_temperature;BME280_humidity;BME280_pressure;Samples;Min_cycle;Max_cycle;Signal;HPM_P1;HPM_P2
2021/01/08 00:02:03;;;;;;;16.17;10.88;;;;;;;4.36;70.16;100604.22;5013590;28;20075;-90
2021/01/08 00:04:28;;;;;;;15.88;10.20;;;;;;;4.29;70.96;100596.72;5011757;28;20519;-90
2021/01/08 00:06:54;;;;;;;20.15;11.52;;;;;;;4.25;69.54;100596.00;5012783;28;20033;-90
2021/01/08 00:09:20;;;;;;;17.35;11.23;;;;;;;4.24;70.88;100594.28;5009310;28;20091;-90
2021/01/08 00:11:45;;;;;;;18.13;11.02;;;;;;;4.22;70.86;100585.69;4999322;28;20022;-90
2021/01/08 00:14:11;;;;;;;18.13;11.52;;;;;;;4.19;70.38;100583.22;5002853;28;20037;-90
2021/01/08 00:16:36;;;;;;;16.67;10.48;;;;;;;4.20;70.52;100582.31;5013587;28;20033;-90
2021/01/08 00:19:02;;;;;;;20.38;11.70;;;;;;;4.09;69.53;100576.69;5004420;28;20446;-90
2021/01/08 00:21:43;;;;;;;15.82;10.40;;;;;;;3.89;71.70;100573.09;4993685;28;20028;-90
2021/01/08 00:24:11;;;;;;;16.90;11.32;;;;;;;4.03;71.48;100564.78;5002231;28;20037;-90
2021/01/08 00:26:37;;;;;;;16.00;10.20;;;;;;;4.15;71.39;100571.25;5013335;28;20050;-90
2021/01/08 00:29:04;;;;;;;18.17;10.93;;;;;;;4.15;70.73;100564.31;5011343;28;20101;-90
2021/01/08 00:31:41;;;;;;;16.80;10.40;;;;;;;4.13;71.01;100568.72;5013090;28;20030;-90
2021/01/08 00:34:07;;;;;;;19.38;10.93;;;;;;;4.17;71.29;100572.06;4997463;28;20064;-89
2021/01/08 00:36:33;;;;;;;15.60;10.30;;;;;;;4.20;70.57;100566.72;4974095;28;20023;-90
2021/01/08 00:38:59;;;;;;;19.60;10.88;;;;;;;4.10;70.79;100565.38;4985242;28;20029;-90
2021/01/08 00:41:29;;;;;;;15.90;10.40;;;;;;;4.12;71.12;100564.41;5013014;28;20461;-90
2021/01/08 00:43:54;;;;;;;18.95;9.82;;;;;;;4.21;70.49;100562.38;5007844;28;20113;-89
2021/01/08 00:46:20;;;;;;;16.42;9.02;;;;;;;4.23;70.17;100563.19;4993354;28;20421;-90
2021/01/08 00:48:45;;;;;;;19.15;11.00;;;;;;;4.02;70.58;100562.25;4997475;28;20026;-90
2021/01/08 00:51:10;;;;;;;17.50;10.75;;;;;;;4.14;70.90;100561.75;4993184;28;20026;-89
2021/01/08 00:53:36;;;;;;;15.13;9.48;;;;;;;4.16;70.35;100558.19;4992908;28;20492;-90
2021/01/08 00:56:01;;;;;;;15.57;10.25;;;;;;;4.16;70.62;100565.16;4993024;28;20033;-90
2021/01/08 00:58:26;;;;;;;15.73;10.32;;;;;;;4.15;70.14;100563.47;4992763;28;20496;-90
2021/01/08 01:00:52;;;;;;;15.05;10.30;;;;;;;4.16;70.38;100571.19;4990602;28;20482;-90
2021/01/08 01:03:17;;;;;;;17.98;9.82;;;;;;;4.18;71.07;100558.13;4992905;28;20113;-90
2021/01/08 01:05:42;;;;;;;17.02;10.57;;;;;;;4.04;69.81;100552.63;4993190;28;20069;-91
2021/01/08 01:08:08;;;;;;;17.67;11.55;;;;;;;3.92;70.74;100556.53;4993178;28;20113;-90
2021/01/08 01:10:33;;;;;;;16.65;10.20;;;;;;;3.98;71.61;100548.50;4982464;28;20038;-90
2021/01/08 01:12:58;;;;;;;16.63;10.82;;;;;;;4.03;70.98;100543.13;4973897;28;20041;-90
2021/01/08 01:15:24;;;;;;;17.42;10.35;;;;;;;3.98;71.26;100551.94;5006650;28;20072;-90
2021/01/08 01:17:49;;;;;;;17.77;10.00;;;;;;;4.01;70.84;100550.13;5011286;28;20054;-90
2021/01/08 01:20:15;;;;;;;17.77;10.25;;;;;;;3.93;70.71;100548.69;4996887;28;20490;-90
2021/01/08 01:22:40;;;;;;;18.35;10.50;;;;;;;3.77;70.31;100551.03;4993208;28;20022;-90
2021/01/08 01:25:06;;;;;;;20.40;11.55;;;;;;;3.83;70.80;100549.97;4982087;28;20366;-90
2021/01/08 01:27:32;;;;;;;21.63;12.68;;;;;;;3.96;71.27;100548.56;4971916;28;20030;-90
2021/01/08 01:29:57;;;;;;;19.92;11.32;;;;;;;3.96;70.62;100543.38;4998638;28;20033;-89
2021/01/08 01:32:22;;;;;;;16.48;11.05;;;;;;;4.04;71.26;100550.88;5012368;28;20030;-90
2021/01/08 01:34:48;;;;;;;18.25;11.82;;;;;;;4.00;70.85;100544.09;5010336;28;20492;-90
2021/01/08 01:37:13;;;;;;;17.20;11.27;;;;;;;4.10;71.36;100555.00;5012360;28;20022;-89
2021/01/08 01:39:38;;;;;;;21.40;12.25;;;;;;;4.04;71.62;100544.84;4995359;28;20105;-89
2021/01/08 01:42:04;;;;;;;19.92;10.75;;;;;;;4.09;71.26;100548.97;4992353;28;20480;-89
2021/01/08 01:44:29;;;;;;;14.25;9.70;;;;;;;4.21;71.38;100550.22;5000478;28;20160;-89
2021/01/08 01:46:55;;;;;;;13.65;8.98;;;;;;;4.29;71.42;100549.94;5014939;28;20499;-89
2021/01/08 01:49:20;;;;;;;16.88;9.60;;;;;;;4.32;71.84;100547.19;5022932;22;20480;-88
2021/01/08 01:51:46;;;;;;;17.70;11.50;;;;;;;4.22;70.92;100541.50;4996107;28;20080;-88
2021/01/08 01:54:11;;;;;;;16.90;10.70;;;;;;;4.24;71.40;100547.50;4999983;28;20065;-88
2021/01/08 01:56:36;;;;;;;17.33;10.43;;;;;;;4.23;71.25;100553.63;5014310;28;20037;-86
2021/01/08 01:59:02;;;;;;;14.77;10.20;;;;;;;4.24;70.76;100546.66;5013697;28;20033;-86
2021/01/08 02:01:27;;;;;;;15.60;10.45;;;;;;;4.26;71.50;100550.03;5012968;28;20033;-88
2021/01/08 02:03:57;;;;;;;16.83;11.65;;;;;;;4.16;71.63;100544.34;4998051;28;20470;-86
2021/01/08 02:06:30;;;;;;;18.27;10.10;;;;;;;4.33;71.28;100547.13;5015370;28;20030;-86
2021/01/08 02:08:59;;;;;;;16.73;10.50;;;;;;;4.43;70.98;100558.03;5003673;28;20026;-86
2021/01/08 02:11:30;;;;;;;15.88;10.15;;;;;;;4.35;70.66;100553.13;4994574;28;20022;-86
2021/01/08 02:14:23;;;;;;;22.60;11.97;;;;;;;4.53;71.44;100556.72;4995296;28;20026;-86
2021/01/08 02:16:50;;;;;;;21.92;11.75;;;;;;;4.64;71.40;100561.53;5015322;28;20053;-88
2021/01/08 02:19:25;;;;;;;30.55;15.10;;;;;;;4.60;70.57;100546.94;5006174;28;20085;-88
2021/01/08 02:22:12;;;;;;;32.47;16.40;;;;;;;4.68;69.84;100562.22;4995534;28;20022;-88
2021/01/08 02:24:47;;;;;;;32.45;17.15;;;;;;;4.46;71.11;100552.69;5003103;28;20040;-88
2021/01/08 02:27:13;;;;;;;30.77;15.88;;;;;;;4.72;70.69;100559.44;5013672;28;20040;-88
2021/01/08 02:29:40;;;;;;;29.83;15.88;;;;;;;4.82;70.16;100559.03;4996432;28;20018;-88
2021/01/08 02:32:06;;;;;;;27.23;14.65;;;;;;;4.85;70.53;100559.75;4995435;28;20033;-86
2021/01/08 02:34:32;;;;;;;26.70;15.02;;;;;;;4.73;70.59;100542.91;4992369;28;20027;-86
2021/01/08 02:36:57;;;;;;;23.38;13.73;;;;;;;4.79;70.63;100553.97;4995267;28;20493;-88
2021/01/08 02:39:24;;;;;;;20.13;12.73;;;;;;;4.67;70.65;100522.38;4995057;28;20079;-86
2021/01/08 02:41:53;;;;;;;18.10;11.18;;;;;;;4.80;70.79;100540.91;4993104;28;20116;-86
2021/01/08 02:44:20;;;;;;;15.63;9.82;;;;;;;4.83;70.19;100545.13;4984798;28;20080;-88
2021/01/08 02:46:47;;;;;;;14.18;9.68;;;;;;;4.76;70.16;100549.75;5013332;28;20503;-88
2021/01/08 02:49:12;;;;;;;12.45;8.90;;;;;;;4.77;70.81;100539.28;5023742;22;20070;-88
2021/01/08 02:51:41;;;;;;;12.95;8.63;;;;;;;4.91;70.71;100554.31;4994064;28;20467;-88
2021/01/08 02:54:08;;;;;;;15.93;9.35;;;;;;;4.89;70.35;100550.09;4995234;28;20551;-89
2021/01/08 02:56:50;;;;;;;13.63;8.80;;;;;;;4.88;70.05;100551.84;4994721;28;20035;-88
2021/01/08 02:59:16;;;;;;;15.57;8.68;;;;;;;4.88;70.23;100551.00;4994634;28;20085;-88
2021/01/08 03:01:43;;;;;;;12.20;8.30;;;;;;;4.93;71.00;100556.84;4995102;28;20030;-89
2021/01/08 03:04:09;;;;;;;14.13;8.43;;;;;;;4.91;70.48;100554.31;4994834;28;20018;-88
2021/01/08 03:06:37;;;;;;;12.50;7.82;;;;;;;4.84;69.88;100546.81;4994370;28;20030;-88
2021/01/08 03:09:03;;;;;;;13.30;8.27;;;;;;;4.87;70.86;100562.31;4994551;28;20022;-89
2021/01/08 03:11:29;;;;;;;13.80;7.68;;;;;;;4.94;70.20;100556.78;4996085;28;20045;-87
2021/01/08 03:13:55;;;;;;;12.38;8.30;;;;;;;4.94;69.94;100559.38;4998210;28;20453;-88
2021/01/08 03:16:21;;;;;;;10.52;7.38;;;;;;;4.97;71.00;100561.00;4997948;28;20049;-88
2021/01/08 03:26:02;;;;;;;18.70;10.82;;;;;;;4.85;70.94;100549.38;4994411;28;20030;-89
2021/01/08 03:28:28;;;;;;;18.50;10.52;;;;;;;4.90;71.28;100554.41;4994670;28;20061;-89
2021/01/08 03:30:53;;;;;;;19.48;10.82;;;;;;;4.80;71.03;100550.47;4986952;28;20038;-89
2021/01/08 03:33:18;;;;;;;21.42;11.20;;;;;;;4.73;70.60;100550.72;4975562;28;20038;-88
2021/01/08 03:35:44;;;;;;;22.50;12.18;;;;;;;4.75;71.82;100548.91;4975148;28;20035;-88
2021/01/08 03:38:09;;;;;;;20.40;10.68;;;;;;;4.55;71.12;100536.72;4975294;28;20042;-88
2021/01/08 03:40:36;;;;;;;18.80;11.38;;;;;;;4.64;72.02;100545.91;4990165;28;20030;-88
2021/01/08 03:43:02;;;;;;;18.05;11.57;;;;;;;4.72;71.75;100538.63;4994384;28;20039;-88
2021/01/08 03:45:28;;;;;;;23.15;12.25;;;;;;;4.77;71.45;100539.28;4994630;28;20502;-88
2021/01/08 03:47:53;;;;;;;19.60;11.18;;;;;;;4.94;71.05;100535.13;4994418;28;20134;-88
2021/01/08 03:50:18;;;;;;;16.70;10.48;;;;;;;5.04;70.81;100539.03;4994848;28;20042;-88
2021/01/08 03:52:44;;;;;;;22.48;11.38;;;;;;;4.96;70.93;100536.75;4993111;28;20030;-88
2021/01/08 03:55:09;;;;;;;17.58;11.75;;;;;;;4.84;71.68;100531.22;4979602;28;20037;-88
2021/01/08 03:57:35;;;;;;;22.67;11.25;;;;;;;5.01;71.79;100539.16;4974806;28;20027;-88
2021/01/08 04:00:00;;;;;;;21.90;12.57;;;;;;;4.79;71.70;100536.63;4973345;28;20033;-88
2021/01/08 04:02:26;;;;;;;20.50;12.10;;;;;;;4.79;71.44;100530.56;4974670;28;20037;-88
2021/01/08 04:04:52;;;;;;;18.10;12.23;;;;;;;4.74;72.08;100533.38;4974604;28;20094;-88
2021/01/08 04:07:18;;;;;;;20.17;12.13;;;;;;;4.78;71.75;100527.13;4972759;28;20031;-88
2021/01/08 04:09:43;;;;;;;21.45;12.32;;;;;;;4.93;72.05;100526.47;4987166;28;20041;-89
2021/01/08 04:12:09;;;;;;;19.05;12.50;;;;;;;4.99;71.42;100530.56;4994075;28;20082;-89
2021/01/08 04:14:34;;;;;;;20.17;12.32;;;;;;;4.99;70.94;100543.56;4993892;28;20080;-88
2021/01/08 04:16:59;;;;;;;21.05;10.95;;;;;;;5.09;71.21;100531.84;4993972;28;20077;-88
2021/01/08 04:19:24;;;;;;;18.88;11.65;;;;;;;5.15;71.27;100535.94;4993025;28;20049;-88
2021/01/08 04:21:50;;;;;;;18.00;12.18;;;;;;;5.13;71.07;100524.75;4992781;28;20027;-88
2021/01/08 04:24:16;;;;;;;19.15;11.27;;;;;;;5.21;71.09;100537.44;4993466;28;20085;-88
2021/01/08 04:26:41;;;;;;;18.88;11.70;;;;;;;5.26;71.02;100532.91;4993602;28;20057;-88
2021/01/08 04:29:06;;;;;;;20.38;12.13;;;;;;;5.30;71.43;100534.44;4993615;28;20029;-88
2021/01/08 04:31:32;;;;;;;19.38;12.40;;;;;;;5.28;71.75;100536.28;4993567;28;20110;-88
2021/01/08 04:33:57;;;;;;;16.50;10.55;;;;;;;5.30;71.04;100524.03;4987937;28;20045;-89
2021/01/08 04:36:22;;;;;;;18.00;10.65;;;;;;;5.29;70.90;100525.81;4973883;28;20114;-88
2021/01/08 04:38:48;;;;;;;19.02;10.77;;;;;;;5.32;71.06;100517.00;4974060;28;20034;-89
2021/01/08 04:41:15;;;;;;;18.33;11.52;;;;;;;5.35;70.80;100516.84;4972495;28;20030;-89
2021/01/08 04:43:40;;;;;;;23.38;13.10;;;;;;;5.31;71.00;100515.31;4973841;28;20031;-88
2021/01/08 04:46:08;;;;;;;21.10;13.05;;;;;;;5.38;71.53;100521.09;4993176;28;20041;-89
2021/01/08 04:48:35;;;;;;;21.75;13.13;;;;;;;5.36;71.33;100519.38;4993376;28;20524;-88
2021/01/08 04:51:03;;;;;;;18.77;12.35;;;;;;;5.30;71.56;100522.28;4993575;28;20041;-88
2021/01/08 04:53:30;;;;;;;20.75;12.13;;;;;;;5.09;72.13;100531.84;4993292;28;20030;-88
2021/01/08 04:55:59;;;;;;;19.60;12.15;;;;;;;5.28;71.95;100523.25;4993061;28;20389;-88
2021/01/08 04:58:28;;;;;;;18.25;10.65;;;;;;;5.37;71.06;100512.41;4993233;28;20479;-88
2021/01/08 05:00:53;;;;;;;17.38;11.20;;;;;;;5.43;71.10;100517.38;4973516;28;20038;-89
2021/01/08 05:03:19;;;;;;;16.75;10.95;;;;;;;5.49;71.19;100522.31;4973445;28;20023;-89
2021/01/08 05:05:44;;;;;;;19.92;11.57;;;;;;;5.34;71.03;100523.00;4973533;28;20508;-88
2021/01/08 05:08:09;;;;;;;18.05;11.40;;;;;;;5.39;71.34;100509.75;4973507;28;20437;-88
2021/01/08 05:10:36;;;;;;;20.17;11.75;;;;;;;5.41;70.97;100519.22;4973738;28;20031;-89
2021/01/08 05:13:01;;;;;;;18.15;11.80;;;;;;;5.38;71.12;100511.53;4973519;28;20030;-88
2021/01/08 05:15:27;;;;;;;23.92;13.88;;;;;;;5.15;71.26;100521.22;4973502;28;20401;-88
2021/01/08 05:17:53;;;;;;;20.52;12.77;;;;;;;5.26;70.87;100519.88;4973526;28;20087;-88
2021/01/08 05:20:18;;;;;;;23.23;13.57;;;;;;;5.19;71.50;100518.44;4973213;28;20033;-88
2021/01/08 05:22:44;;;;;;;25.98;14.07;;;;;;;5.13;71.05;100523.03;4971903;28;20023;-89
2021/01/08 05:25:11;;;;;;;22.85;14.82;;;;;;;5.05;71.42;100519.88;4983578;28;20032;-88
2021/01/08 05:27:37;;;;;;;27.95;15.65;;;;;;;5.11;70.41;100519.63;4992491;28;20061;-88
2021/01/08 05:30:12;;;;;;;25.25;16.20;;;;;;;5.14;71.33;100521.25;4992621;28;20054;-89
2021/01/08 05:32:37;;;;;;;25.35;15.80;;;;;;;4.97;71.42;100519.38;4992628;28;20022;-89
2021/01/08 05:35:03;;;;;;;25.48;15.15;;;;;;;5.09;71.18;100523.22;4983866;28;20122;-89
2021/01/08 05:37:30;;;;;;;24.08;15.02;;;;;;;4.95;71.70;100529.00;4973034;28;20118;-88
2021/01/08 05:40:03;;;;;;;21.17;13.10;;;;;;;5.15;71.06;100521.22;4973075;28;20037;-89
2021/01/08 05:42:29;;;;;;;21.02;14.15;;;;;;;5.16;70.52;100532.44;4972934;28;20035;-88
2021/01/08 05:44:54;;;;;;;23.60;14.20;;;;;;;5.15;70.37;100528.16;4973128;28;20481;-89
2021/01/08 05:47:20;;;;;;;20.60;13.85;;;;;;;5.19;70.90;100528.88;4973047;28;20529;-88
2021/01/08 05:49:46;;;;;;;24.48;14.60;;;;;;;5.14;70.08;100529.91;4980812;28;20385;-89
2021/01/08 05:52:14;;;;;;;27.95;16.55;;;;;;;4.89;71.89;100529.28;4992280;28;20477;-89
2021/01/08 05:54:40;;;;;;;27.10;15.07;;;;;;;5.00;70.87;100529.66;4992412;28;20093;-87
2021/01/08 05:57:06;;;;;;;27.70;15.75;;;;;;;4.99;70.79;100524.53;4992662;28;20026;-88
2021/01/08 05:59:31;;;;;;;31.13;16.88;;;;;;;4.87;71.43;100531.09;4989567;28;20035;-88
2021/01/08 06:01:58;;;;;;;26.30;15.52;;;;;;;4.73;71.36;100524.69;4971760;28;20118;-88
2021/01/08 06:04:29;;;;;;;23.70;14.73;;;;;;;4.91;71.09;100524.84;4972767;28;20038;-88
2021/01/08 06:06:55;;;;;;;26.25;15.65;;;;;;;4.85;70.93;100518.13;4971472;28;20051;-88
2021/01/08 06:09:21;;;;;;;25.40;15.00;;;;;;;4.71;71.08;100521.31;4972789;28;20061;-88
2021/01/08 06:11:46;;;;;;;22.92;14.10;;;;;;;4.77;70.12;100526.25;4972839;28;20034;-88
2021/01/08 06:14:14;;;;;;;24.33;14.23;;;;;;;4.67;70.96;100524.97;4974422;28;20481;-89
2021/01/08 06:16:43;;;;;;;23.58;14.15;;;;;;;4.77;70.38;100530.63;4992221;28;20026;-89
2021/01/08 06:19:09;;;;;;;22.88;14.10;;;;;;;4.70;70.32;100521.38;4992126;28;20130;-88
2021/01/08 06:21:39;;;;;;;24.02;14.27;;;;;;;4.66;70.79;100523.28;4992190;28;20101;-88
2021/01/08 06:24:10;;;;;;;26.92;15.18;;;;;;;4.57;71.19;100518.47;4991193;28;20038;-88
2021/01/08 06:26:37;;;;;;;25.50;14.48;;;;;;;4.53;71.38;100525.53;4992458;28;20133;-89
2021/01/08 06:29:07;;;;;;;23.67;14.70;;;;;;;4.54;71.98;100526.38;4991869;28;20022;-88
2021/01/08 06:31:32;;;;;;;29.30;16.27;;;;;;;4.53;71.78;100527.28;4993690;28;20038;-88
2021/01/08 06:33:59;;;;;;;25.63;15.27;;;;;;;4.57;70.92;100526.25;4995554;28;20041;-88
2021/01/08 06:36:33;;;;;;;27.92;16.25;;;;;;;4.51;71.29;100521.31;4995603;28;20045;-88
2021/01/08 06:39:11;;;;;;;27.73;15.43;;;;;;;4.47;71.16;100514.56;4993834;28;20488;-88
2021/01/08 06:41:39;;;;;;;24.67;14.50;;;;;;;4.61;70.86;100529.59;4994270;28;20113;-89
2021/01/08 06:44:05;;;;;;;26.15;15.07;;;;;;;4.51;71.11;100536.91;4995479;28;20490;-89
2021/01/08 06:46:36;;;;;;;31.80;17.42;;;;;;;4.02;73.46;100534.50;4995555;28;20049;-88
2021/01/08 06:49:12;;;;;;;35.03;17.23;;;;;;;4.33;71.80;100531.53;4995379;28;20022;-88
2021/01/08 06:51:41;;;;;;;31.80;17.60;;;;;;;4.27;72.24;100534.41;4995248;28;20049;-88
2021/01/08 06:54:07;;;;;;;26.20;15.45;;;;;;;4.39;71.61;100542.63;4995194;28;20030;-88
2021/01/08 06:56:35;;;;;;;25.90;14.10;;;;;;;4.55;71.57;100538.47;4995196;28;20392;-88
2021/01/08 06:59:01;;;;;;;31.17;17.27;;;;;;;4.47;71.55;100540.56;4995261;28;20026;-88
2021/01/08 07:02:07;;;;;;;29.17;16.67;;;;;;;4.57;71.36;100536.66;4993679;28;20034;-88
2021/01/08 07:04:32;;;;;;;29.10;15.55;;;;;;;4.46;71.83;100546.66;4971632;28;20047;-88
2021/01/08 07:07:01;;;;;;;27.05;14.68;;;;;;;4.47;71.32;100556.16;4975677;28;20039;-88
2021/01/08 07:09:35;;;;;;;26.85;15.50;;;;;;;4.53;71.13;100555.91;4975495;28;20022;-88
2021/01/08 07:12:01;;;;;;;28.27;15.02;;;;;;;4.56;71.06;100550.56;4974318;28;20027;-88
2021/01/08 07:14:27;;;;;;;30.75;15.98;;;;;;;4.39;71.30;100553.00;4974385;28;20537;-88
2021/01/08 07:16:54;;;;;;;30.48;16.25;;;;;;;4.03;72.73;100558.72;4975387;28;20389;-88
2021/01/08 07:19:22;;;;;;;30.33;15.63;;;;;;;4.41;71.51;100559.00;4975325;28;20023;-89
2021/01/08 07:21:50;;;;;;;29.95;16.45;;;;;;;4.43;71.82;100564.97;4974140;28;20060;-88
2021/01/08 07:24:29;;;;;;;31.70;16.92;;;;;;;4.43;71.74;100563.22;4975275;28;20030;-88
2021/01/08 07:26:54;;;;;;;32.03;17.10;;;;;;;4.42;71.51;100571.91;4975191;28;20509;-88
2021/01/08 07:29:29;;;;;;;31.73;17.40;;;;;;;4.53;71.25;100579.31;4992855;28;20062;-88
2021/01/08 07:31:55;;;;;;;32.83;17.25;;;;;;;4.60;71.27;100578.16;4994815;28;20081;-88
2021/01/08 07:34:33;;;;;;;32.53;16.27;;;;;;;4.68;71.20;100577.81;4994627;28;20041;-88
2021/01/08 07:36:59;;;;;;;34.97;18.15;;;;;;;4.67;71.44;100582.19;4998930;28;20033;-88
2021/01/08 07:39:40;;;;;;;32.55;16.70;;;;;;;4.76;71.34;100579.22;4977048;28;20031;-88
2021/01/08 07:42:33;;;;;;;33.25;17.33;;;;;;;4.66;70.39;100583.09;4979163;28;20535;-88
2021/01/08 07:44:59;;;;;;;35.45;17.80;;;;;;;4.62;71.59;100583.28;4993661;28;20042;-87
2021/01/08 07:47:26;;;;;;;34.33;18.13;;;;;;;4.69;71.07;100584.72;4993999;28;20025;-88
2021/01/08 07:50:08;;;;;;;34.88;17.42;;;;;;;4.75;71.59;100587.91;5006984;22;20049;-90
2021/01/08 07:52:34;;;;;;;;;;;;;;;4.85;70.75;100590.16;4996780;28;20558;-90
2021/01/08 07:55:00;;;;;;;48.38;22.55;;;;;;;4.79;71.14;100596.44;5012382;28;19913;-90
2021/01/08 07:57:25;;;;;;;45.92;22.15;;;;;;;4.77;71.35;100582.66;5013292;28;20392;-90
2021/01/08 07:59:50;;;;;;;36.95;17.83;;;;;;;4.65;70.64;100586.59;5013723;28;20468;-90
2021/01/08 08:02:16;;;;;;;39.03;17.95;;;;;;;4.75;71.28;100590.50;5001083;28;20018;-90
2021/01/08 08:04:42;;;;;;;35.03;18.92;;;;;;;4.86;71.71;100603.09;4993002;28;20481;-90
2021/01/08 08:07:11;;;;;;;30.88;16.83;;;;;;;4.89;71.50;100600.34;4993177;28;20053;-91
2021/01/08 08:09:37;;;;;;;37.42;18.48;;;;;;;4.90;71.35;100598.63;4992263;28;20037;-89
2021/01/08 08:12:09;;;;;;;38.45;17.73;;;;;;;4.94;71.44;100600.19;4991321;28;20514;-88
2021/01/08 08:14:34;;;;;;;35.38;18.10;;;;;;;5.04;71.09;100614.50;4992263;28;20035;-89
2021/01/08 08:18:06;;;;;;;35.67;18.02;;;;;;;4.81;70.79;100581.63;5122840;27;20366;-95
2021/01/08 08:20:32;;;;;;;37.95;18.95;;;;;;;4.66;70.65;100583.09;5111257;28;20092;-96
2021/01/08 08:22:57;;;;;;;40.40;20.13;;;;;;;4.92;70.57;100622.81;5104876;28;20048;-96
2021/01/08 08:25:30;;;;;;;39.15;18.60;;;;;;;4.97;70.75;100611.28;5126319;28;20410;-96
2021/01/08 08:28:00;;;;;;;33.10;18.65;;;;;;;4.83;69.99;100590.22;5113268;28;20024;-96
2021/01/08 08:30:28;;;;;;;38.70;19.63;;;;;;;4.67;71.24;100586.53;5184285;22;20051;-95
2021/01/08 08:32:57;;;;;;;35.38;18.83;;;;;;;4.77;70.35;100586.09;5175127;22;20438;-94
2021/01/08 08:35:22;;;;;;;37.72;18.88;;;;;;;4.99;70.67;100613.84;5112721;28;20028;-95
2021/01/08 08:37:55;;;;;;;37.78;17.15;;;;;;;5.06;70.45;100606.63;5118691;27;20031;-95
2021/01/08 08:40:27;;;;;;;35.30;18.63;;;;;;;4.97;70.49;100610.44;5132861;28;20035;-95
2021/01/08 08:42:55;;;;;;;32.92;16.10;;;;;;;4.94;69.80;100602.78;5109293;28;20025;-95
2021/01/08 08:45:23;;;;;;;37.33;19.10;;;;;;;5.19;69.80;100631.22;5111049;28;20035;-95
2021/01/08 08:47:54;;;;;;;33.80;17.27;;;;;;;5.05;69.71;100613.56;5111356;28;20028;-95
2021/01/08 08:50:20;;;;;;;35.33;17.90;;;;;;;5.24;69.65;100638.84;5119773;22;20035;-89
2021/01/08 08:52:46;;;;;;;32.60;17.67;;;;;;;5.33;70.10;100646.25;5098142;28;20110;-89
2021/01/08 08:55:31;;;;;;;36.58;17.27;;;;;;;5.38;69.93;100648.69;5088539;28;20024;-88
2021/01/08 08:58:01;;;;;;;36.13;17.92;;;;;;;5.34;70.43;100651.41;5097642;28;20169;-89
2021/01/08 09:00:27;;;;;;;35.05;17.80;;;;;;;5.42;69.53;100658.91;5098218;28;20115;-86
2021/01/08 09:02:52;;;;;;;35.42;17.75;;;;;;;5.46;69.97;100651.81;5087771;28;20024;-85
2021/01/08 09:05:17;;;;;;;29.92;15.98;;;;;;;5.41;69.54;100657.22;5089316;28;20031;-86
2021/01/08 09:07:50;;;;;;;32.60;15.65;;;;;;;5.46;69.62;100660.47;5107306;28;20107;-86
2021/01/08 09:10:19;;;;;;;32.47;16.50;;;;;;;5.51;69.57;100668.94;5110375;28;20019;-86
2021/01/08 09:13:26;;;;;;;27.60;15.32;;;;;;;5.54;68.68;100674.00;5091044;28;20028;-86
2021/01/08 09:16:03;;;;;;;31.83;16.83;;;;;;;5.56;69.42;100672.16;5004035;28;20035;-86
2021/01/08 09:18:52;;;;;;;32.90;17.33;;;;;;;5.67;69.04;100665.69;5078595;28;20102;-86
2021/01/08 09:21:22;;;;;;;33.17;17.17;;;;;;;5.60;68.82;100670.28;5090416;28;20107;-86
2021/01/08 09:23:51;;;;;;;35.50;18.00;;;;;;;5.62;69.07;100671.06;5087064;28;20490;-86
2021/01/08 09:26:19;;;;;;;32.92;17.58;;;;;;;5.56;68.55;100666.97;5085781;28;20039;-86
2021/01/08 09:28:52;;;;;;;34.28;17.80;;;;;;;5.54;68.82;100671.38;5077636;28;20128;-87
2021/01/08 09:31:39;;;;;;;31.80;18.08;;;;;;;5.68;68.76;100685.59;5076328;28;20017;-86
2021/01/08 09:34:05;;;;;;;30.95;16.33;;;;;;;5.72;69.00;100681.94;5073949;28;20036;-87
2021/01/08 09:36:35;;;;;;;32.08;16.15;;;;;;;5.73;68.63;100684.47;5078327;28;20504;-86
2021/01/08 09:39:06;;;;;;;32.10;16.60;;;;;;;5.76;68.64;100678.28;5074545;28;20107;-87
2021/01/08 09:41:34;;;;;;;35.53;17.30;;;;;;;5.67;68.94;100694.34;5078043;28;20017;-87
2021/01/08 09:44:00;;;;;;;31.52;17.30;;;;;;;5.78;68.65;100694.69;5075158;28;20361;-86
2021/01/08 09:46:26;;;;;;;35.88;17.48;;;;;;;5.80;68.50;100698.09;5075306;28;20102;-86
2021/01/08 09:48:53;;;;;;;27.65;15.35;;;;;;;5.91;68.42;100690.66;5074861;28;20033;-86
2021/01/08 09:51:19;;;;;;;29.85;16.65;;;;;;;5.85;68.36;100688.31;5104458;22;20085;-95
2021/01/08 09:53:54;;;;;;;32.65;18.63;;;;;;;5.93;67.77;100686.22;5102753;28;20488;-94
2021/01/08 09:56:21;;;;;;;29.90;15.40;;;;;;;6.04;68.14;100692.75;5082933;28;20020;-94
2021/01/08 09:58:47;;;;;;;31.27;16.20;;;;;;;6.05;68.00;100690.06;5089012;28;20028;-94
2021/01/08 10:01:13;;;;;;;30.63;16.50;;;;;;;6.18;67.75;100694.72;5083366;28;20016;-94
2021/01/08 10:03:49;;;;;;;35.08;18.02;;;;;;;6.19;68.50;100692.06;5079930;28;20470;-93
2021/01/08 10:06:15;;;;;;;39.88;19.80;;;;;;;6.23;68.37;100692.78;5085782;28;20033;-93
2021/01/08 10:08:41;;;;;;;40.50;19.15;;;;;;;6.25;67.21;100690.94;5093494;28;20029;-94
2021/01/08 10:11:07;;;;;;;40.55;19.00;;;;;;;6.29;67.65;100697.72;5104987;28;20027;-94
2021/01/08 10:13:34;;;;;;;38.03;19.90;;;;;;;6.23;67.74;100692.78;5090236;28;20020;-94
2021/01/08 10:16:08;;;;;;;41.53;21.25;;;;;;;6.27;67.67;100695.16;5074780;28;20032;-93
2021/01/08 10:18:36;;;;;;;35.22;18.10;;;;;;;6.32;67.54;100682.78;5074660;28;20024;-93
2021/01/08 10:21:03;;;;;;;35.20;19.65;;;;;;;6.39;67.15;100692.91;5092773;28;20029;-90
2021/01/08 10:23:29;;;;;;;41.50;20.90;;;;;;;6.33;66.36;100699.25;5091861;28;20032;-92
2021/01/08 10:26:18;;;;;;;34.25;18.63;;;;;;;6.43;66.92;100700.53;5087135;28;20027;-93
2021/01/08 10:28:51;;;;;;;32.80;17.08;;;;;;;6.52;67.13;100694.06;5085119;28;20036;-95
2021/01/08 10:31:17;;;;;;;33.75;17.73;;;;;;;6.60;67.13;100694.53;5080659;28;20058;-95
2021/01/08 10:33:43;;;;;;;37.85;18.75;;;;;;;6.68;66.82;100692.41;5078958;28;20025;-95
2021/01/08 10:36:09;;;;;;;37.10;18.77;;;;;;;6.54;65.93;100692.22;5079938;28;20029;-94
2021/01/08 10:38:34;;;;;;;35.13;17.42;;;;;;;6.66;65.96;100682.97;5079078;28;20028;-94
2021/01/08 10:40:59;;;;;;;36.08;19.17;;;;;;;6.86;65.21;100701.13;5082761;28;20020;-93
2021/01/08 10:43:25;;;;;;;35.00;18.70;;;;;;;6.78;65.96;100699.81;5086979;28;20024;-93
2021/01/08 10:45:50;;;;;;;35.67;18.67;;;;;;;6.78;65.49;100697.19;5077793;28;20044;-93
2021/01/08 10:48:16;;;;;;;30.20;16.95;;;;;;;6.87;66.22;100700.22;5087791;28;20016;-93
2021/01/08 10:50:42;;;;;;;35.53;18.45;;;;;;;6.93;65.01;100701.66;5090494;28;20077;-93
2021/01/08 10:53:07;;;;;;;36.38;18.50;;;;;;;7.09;65.84;100694.81;5087191;28;20016;-93
2021/01/08 10:55:33;;;;;;;36.58;19.42;;;;;;;7.05;64.68;100688.03;5082618;28;20294;-92
2021/01/08 10:57:58;;;;;;;36.22;19.27;;;;;;;7.05;65.13;100682.81;5086632;28;20087;-93
2021/01/08 11:00:24;;;;;;;34.05;17.65;;;;;;;7.04;65.36;100680.28;5086311;28;20025;-95
2021/01/08 11:02:50;;;;;;;41.63;20.23;;;;;;;6.87;65.72;100699.34;5093497;28;20031;-95
2021/01/08 11:05:15;;;;;;;34.30;17.80;;;;;;;6.94;64.68;100674.66;5085610;28;20033;-88
2021/01/08 11:08:12;;;;;;;34.22;18.95;;;;;;;6.99;64.46;100683.13;5068697;28;20388;-83
2021/01/08 11:10:39;;;;;;;36.22;19.35;;;;;;;6.96;64.59;100698.91;5051786;28;20021;-83
2021/01/08 11:13:05;;;;;;;34.97;19.15;;;;;;;6.94;64.68;100692.94;5047670;28;20067;-83
2021/01/08 11:15:31;;;;;;;33.83;19.13;;;;;;;7.07;64.33;100696.63;5048078;28;20029;-83
2021/01/08 11:17:56;;;;;;;38.50;20.25;;;;;;;7.00;63.96;100691.78;5040650;28;20483;-83
2021/01/08 11:20:22;;;;;;;35.70;18.95;;;;;;;6.93;64.64;100699.06;5048963;28;20104;-83
2021/01/08 11:22:47;;;;;;;33.20;17.10;;;;;;;6.96;63.85;100685.88;5048199;28;20467;-83
2021/01/08 11:25:14;;;;;;;36.30;19.25;;;;;;;7.04;63.57;100691.56;5049397;28;20109;-85
2021/01/08 11:27:41;;;;;;;33.78;19.25;;;;;;;6.72;65.08;100693.94;5050076;28;20086;-83
2021/01/08 11:30:07;;;;;;;35.05;18.92;;;;;;;6.87;65.74;100684.56;5049659;28;20352;-83